| time (UTC) | temp F | wind direction | speed MPH | gust MPH | rain 1hr in | rain 24hr in | rain mn in | humidity % | barometer mb |
| 20260510033324 | 47 | 252 | 0.0 | 0.0 | 0.00 | 0.00 | 0.00 | 91 | 1013.2 |
| 20260510032821 | 47 | 253 | 0.0 | 0.0 | 0.00 | 0.00 | 0.00 | 90 | 1013.2 |
| 20260510032318 | 48 | 252 | 0.0 | 0.0 | 0.00 | 0.00 | 0.00 | 89 | 1013.0 |
| 20260510031813 | 48 | 241 | 1.0 | 1.0 | 0.00 | 0.00 | 0.00 | 88 | 1013.0 |
| 20260510031309 | 49 | 197 | 1.0 | 1.0 | 0.00 | 0.00 | 0.00 | 88 | 1013.1 |
| 20260510030809 | 49 | 215 | 1.0 | 3.0 | 0.00 | 0.00 | 0.00 | 89 | 1013.1 |
| 20260510030306 | 49 | 227 | 1.0 | 2.0 | 0.00 | 0.00 | 0.00 | 88 | 1013.1 |
| 20260510025803 | 49 | 179 | 2.0 | 3.0 | 0.00 | 0.00 | 0.00 | 88 | 1013.1 |
| 20260510025300 | 49 | 192 | 2.0 | 3.0 | 0.00 | 0.00 | 0.00 | 88 | 1012.9 |
| 20260510024757 | 49 | 234 | 1.0 | 2.0 | 0.00 | 0.00 | 0.00 | 89 | 1013.0 |
| 20260510024254 | 49 | 209 | 0.0 | 3.0 | 0.00 | 0.00 | 0.00 | 88 | 1012.8 |
| 20260510023750 | 50 | 225 | 2.0 | 3.0 | 0.00 | 0.00 | 0.00 | 88 | 1013.0 |
| 20260510023247 | 49 | 215 | 2.0 | 4.0 | 0.00 | 0.00 | 0.00 | 88 | 1012.9 |
| 20260510022744 | 50 | 172 | 1.0 | 1.0 | 0.00 | 0.00 | 0.00 | 86 | 1013.0 |
| 20260510022243 | 51 | 207 | 2.0 | 2.0 | 0.00 | 0.00 | 0.00 | 86 | 1012.8 |
| 20260510021742 | 51 | 209 | 2.0 | 3.0 | 0.00 | 0.00 | 0.00 | 86 | 1012.8 |
| 20260510021241 | 51 | 214 | 1.0 | 2.0 | 0.00 | 0.00 | 0.00 | 87 | 1012.6 |
| 20260510020737 | 51 | 203 | 1.0 | 2.0 | 0.00 | 0.00 | 0.00 | 85 | 1012.5 |
| 20260510020236 | 51 | 196 | 3.0 | 4.0 | 0.00 | 0.00 | 0.00 | 85 | 1012.3 |
| 20260510015733 | 51 | 200 | 2.0 | 3.0 | 0.00 | 0.00 | 0.00 | 85 | 1012.3 |
| 20260510015229 | 52 | 220 | 2.0 | 3.0 | 0.00 | 0.00 | 0.00 | 85 | 1012.2 |
| 20260510014724 | 53 | 221 | 2.0 | 3.0 | 0.00 | 0.00 | 0.00 | 82 | 1012.0 |
| 20260510014222 | 53 | 218 | 0.0 | 3.0 | 0.00 | 0.00 | 0.00 | 82 | 1011.9 |
| 20260510013717 | 53 | 193 | 1.0 | 2.0 | 0.00 | 0.00 | 0.00 | 83 | 1012.0 |
| 20260510013214 | 53 | 201 | 4.0 | 4.0 | 0.00 | 0.00 | 0.00 | 84 | 1011.9 |
| 20260510012713 | 54 | 211 | 2.0 | 3.0 | 0.00 | 0.00 | 0.00 | 80 | 1011.9 |
| 20260510012209 | 55 | 224 | 2.0 | 3.0 | 0.00 | 0.00 | 0.00 | 81 | 1011.7 |
| 20260510011704 | 53 | 218 | 3.0 | 4.0 | 0.00 | 0.00 | 0.00 | 82 | 1011.6 |
| 20260510011200 | 53 | 196 | 1.0 | 2.0 | 0.00 | 0.00 | 0.00 | 83 | 1011.5 |
| 20260510010656 | 53 | 199 | 2.0 | 3.0 | 0.00 | 0.00 | 0.00 | 83 | 1011.6 |
| 20260510010148 | 54 | 210 | 1.0 | 4.0 | 0.00 | 0.00 | 0.00 | 84 | 1011.5 |
| 20260510005644 | 55 | 212 | 2.0 | 3.0 | 0.00 | 0.00 | 0.00 | 81 | 1011.3 |
| 20260510005141 | 55 | 209 | 2.0 | 3.0 | 0.00 | 0.00 | 0.00 | 79 | 1011.4 |
| 20260510004639 | 55 | 225 | 2.0 | 3.0 | 0.00 | 0.00 | 0.00 | 78 | 1011.5 |
| 20260510004137 | 55 | 219 | 2.0 | 3.0 | 0.00 | 0.00 | 0.00 | 78 | 1011.1 |
| 20260510003634 | 56 | 229 | 2.0 | 3.0 | 0.00 | 0.00 | 0.00 | 78 | 1011.0 |
| 20260510003130 | 57 | 236 | 1.0 | 2.0 | 0.00 | 0.00 | 0.00 | 77 | 1011.0 |
| 20260510002629 | 58 | 222 | 0.0 | 0.0 | 0.00 | 0.00 | 0.00 | 75 | 1011.1 |
| 20260510002127 | 58 | 222 | 0.0 | 0.0 | 0.00 | 0.00 | 0.00 | 73 | 1010.6 |
| 20260510001623 | 59 | 222 | 0.0 | 0.0 | 0.00 | 0.00 | 0.00 | 71 | 1010.7 |
| 20260510001123 | 60 | 214 | 0.0 | 0.0 | 0.00 | 0.00 | 0.00 | 70 | 1010.6 |
| 20260510000622 | 61 | 213 | 2.0 | 2.0 | 0.00 | 0.00 | 0.00 | 68 | 1010.6 |
| 20260510000120 | 61 | 222 | 1.0 | 3.0 | 0.00 | 0.00 | 0.00 | 67 | 1010.5 |
| 20260509235616 | 62 | 217 | 1.0 | 3.0 | 0.00 | 0.00 | 0.00 | 66 | 1010.3 |
| 20260509235113 | 63 | 208 | 2.0 | 2.0 | 0.00 | 0.00 | 0.00 | 64 | 1010.2 |
| 20260509234609 | 64 | 249 | 0.0 | 2.0 | 0.00 | 0.00 | 0.00 | 63 | 1010.3 |
| 20260509234107 | 65 | 222 | 0.0 | 2.0 | 0.00 | 0.00 | 0.00 | 58 | 1010.3 |
| 20260509233604 | 65 | 9 | 1.0 | 3.0 | 0.00 | 0.00 | 0.00 | 57 | 1010.3 |
| 20260509233101 | 67 | 265 | 1.0 | 2.0 | 0.00 | 0.00 | 0.00 | 53 | 1010.4 |
| 20260509232557 | 67 | 214 | 0.0 | 0.0 | 0.00 | 0.00 | 0.00 | 53 | 1010.5 |
| 20260509232055 | 67 | 213 | 2.0 | 3.0 | 0.00 | 0.00 | 0.00 | 52 | 1010.2 |
| 20260509231551 | 67 | 195 | 2.0 | 3.0 | 0.00 | 0.00 | 0.00 | 55 | 1010.4 |
| 20260509231049 | 69 | 214 | 2.0 | 3.0 | 0.00 | 0.00 | 0.00 | 51 | 1010.4 |
| 20260509230545 | 70 | 196 | 4.0 | 4.0 | 0.00 | 0.00 | 0.00 | 49 | 1010.5 |
| 20260509230043 | 70 | 187 | 3.0 | 3.0 | 0.00 | 0.00 | 0.00 | 47 | 1010.4 |
| 20260509225538 | 71 | 227 | 1.0 | 2.0 | 0.00 | 0.00 | 0.00 | 47 | 1010.4 |
| 20260509225034 | 71 | 154 | 2.0 | 3.0 | 0.00 | 0.00 | 0.00 | 47 | 1010.3 |
| 20260509224529 | 71 | 136 | 2.0 | 4.0 | 0.00 | 0.00 | 0.00 | 46 | 1010.5 |
| 20260509224026 | 72 | 268 | 0.0 | 0.0 | 0.00 | 0.00 | 0.00 | 46 | 1010.3 |
| 20260509223523 | 71 | 308 | 1.0 | 1.0 | 0.00 | 0.00 | 0.00 | 49 | 1010.4 |
| 20260509223021 | 69 | 286 | 0.0 | 1.0 | 0.00 | 0.00 | 0.00 | 50 | 1010.4 |
| 20260509222517 | 69 | 318 | 3.0 | 3.0 | 0.00 | 0.00 | 0.00 | 50 | 1010.6 |
| 20260509222012 | 69 | 15 | 3.0 | 3.0 | 0.00 | 0.00 | 0.00 | 52 | 1010.5 |
| 20260509221509 | 69 | 342 | 1.0 | 3.0 | 0.00 | 0.00 | 0.00 | 50 | 1010.4 |
| 20260509221005 | 68 | 315 | 1.0 | 2.0 | 0.00 | 0.00 | 0.00 | 51 | 1010.3 |
| 20260509220501 | 69 | 330 | 3.0 | 4.0 | 0.00 | 0.00 | 0.00 | 50 | 1010.3 |
| 20260509215957 | 69 | 329 | 2.0 | 4.0 | 0.00 | 0.00 | 0.00 | 49 | 1010.4 |
| 20260509215452 | 69 | 231 | 2.0 | 4.0 | 0.00 | 0.00 | 0.00 | 49 | 1010.4 |
| 20260509214950 | 69 | 13 | 2.0 | 7.0 | 0.00 | 0.00 | 0.00 | 50 | 1010.3 |
| 20260509214448 | 69 | 333 | 1.0 | 6.0 | 0.00 | 0.00 | 0.00 | 49 | 1010.4 |
| 20260509213944 | 69 | 318 | 2.0 | 6.0 | 0.00 | 0.00 | 0.00 | 49 | 1010.3 |
| 20260509213440 | 70 | 310 | 4.0 | 4.0 | 0.00 | 0.00 | 0.00 | 47 | 1010.2 |
| 20260509212937 | 69 | 324 | 3.0 | 3.0 | 0.00 | 0.00 | 0.00 | 49 | 1010.2 |
| 20260509212435 | 69 | 308 | 3.0 | 4.0 | 0.00 | 0.00 | 0.00 | 49 | 1010.0 |
| 20260509211931 | 70 | 326 | 6.0 | 8.0 | 0.00 | 0.00 | 0.00 | 48 | 1010.0 |
| 20260509211426 | 70 | 27 | 1.0 | 6.0 | 0.00 | 0.00 | 0.00 | 48 | 1010.0 |
| 20260509210923 | 70 | 23 | 1.0 | 6.0 | 0.00 | 0.00 | 0.00 | 47 | 1010.0 |
| 20260509210420 | 71 | 303 | 1.0 | 3.0 | 0.00 | 0.00 | 0.00 | 48 | 1009.9 |
| 20260509205915 | 71 | 330 | 1.0 | 2.0 | 0.00 | 0.00 | 0.00 | 45 | 1009.9 |
| 20260509205415 | 71 | 318 | 4.0 | 4.0 | 0.00 | 0.00 | 0.00 | 46 | 1009.7 |
| 20260509204911 | 71 | 121 | 0.0 | 7.0 | 0.00 | 0.00 | 0.00 | 45 | 1009.7 |
| 20260509204408 | 71 | 318 | 0.0 | 3.0 | 0.00 | 0.00 | 0.00 | 44 | 1009.7 |
| 20260509203905 | 71 | 19 | 4.0 | 8.0 | 0.00 | 0.00 | 0.00 | 44 | 1009.9 |
| 20260509203401 | 71 | 20 | 3.0 | 7.0 | 0.00 | 0.00 | 0.00 | 42 | 1009.8 |
| 20260509202858 | 71 | 15 | 1.0 | 3.0 | 0.00 | 0.00 | 0.00 | 43 | 1009.8 |
| 20260509202354 | 71 | 349 | 2.0 | 3.0 | 0.00 | 0.00 | 0.00 | 43 | 1009.8 |
| 20260509201849 | 71 | 22 | 3.0 | 4.0 | 0.00 | 0.00 | 0.00 | 43 | 1009.5 |
| 20260509201345 | 71 | 17 | 4.0 | 6.0 | 0.00 | 0.00 | 0.00 | 45 | 1009.6 |
| 20260509200842 | 71 | 326 | 2.0 | 3.0 | 0.00 | 0.00 | 0.00 | 46 | 1009.6 |
| 20260509200336 | 71 | 7 | 2.0 | 4.0 | 0.00 | 0.00 | 0.00 | 45 | 1009.5 |
| 20260509195834 | 72 | 4 | 2.0 | 7.0 | 0.00 | 0.00 | 0.00 | 45 | 1009.6 |
| 20260509195333 | 72 | 352 | 2.0 | 3.0 | 0.00 | 0.00 | 0.00 | 43 | 1009.5 |
| 20260509194828 | 72 | 278 | 2.0 | 4.0 | 0.00 | 0.00 | 0.00 | 40 | 1009.5 |
| 20260509194324 | 71 | 195 | 5.0 | 10.0 | 0.00 | 0.00 | 0.00 | 41 | 1009.5 |
| 20260509193821 | 72 | 245 | 0.0 | 0.0 | 0.00 | 0.00 | 0.00 | 41 | 1009.7 |
| 20260509193320 | 72 | 323 | 0.0 | 0.0 | 0.00 | 0.00 | 0.00 | 41 | 1009.6 |
| 20260509192817 | 72 | 234 | 0.0 | 2.0 | 0.00 | 0.00 | 0.00 | 41 | 1010.0 |
| 20260509192313 | 72 | 7 | 0.0 | 1.0 | 0.00 | 0.00 | 0.00 | 42 | 1009.7 |
| 20260509191808 | 72 | 15 | 0.0 | 2.0 | 0.00 | 0.00 | 0.00 | 42 | 1009.7 |
| 20260509191304 | 72 | 16 | 2.0 | 2.0 | 0.00 | 0.00 | 0.00 | 41 | 1009.9 |
| 20260509190800 | 71 | 227 | 0.0 | 0.0 | 0.00 | 0.00 | 0.00 | 43 | 1009.9 |
| 20260509190258 | 71 | 283 | 2.0 | 4.0 | 0.00 | 0.00 | 0.00 | 44 | 1010.1 |
| 20260509185755 | 70 | 340 | 2.0 | 4.0 | 0.00 | 0.00 | 0.00 | 46 | 1010.1 |
| 20260509185251 | 69 | 302 | 4.0 | 4.0 | 0.00 | 0.00 | 0.00 | 46 | 1010.3 |
| 20260509184749 | 70 | 343 | 3.0 | 6.0 | 0.00 | 0.00 | 0.00 | 47 | 1010.1 |
| 20260509184246 | 70 | 306 | 2.0 | 6.0 | 0.00 | 0.00 | 0.00 | 46 | 1010.1 |
| 20260509183742 | 71 | 316 | 2.0 | 4.0 | 0.00 | 0.00 | 0.00 | 50 | 1010.3 |
| 20260509183237 | 71 | 315 | 4.0 | 6.0 | 0.00 | 0.00 | 0.00 | 44 | 1010.3 |
| 20260509182733 | 71 | 271 | 3.0 | 4.0 | 0.00 | 0.00 | 0.00 | 41 | 1010.2 |
| 20260509182231 | 71 | 42 | 0.0 | 1.0 | 0.00 | 0.00 | 0.00 | 43 | 1010.4 |
| 20260509181728 | 70 | 52 | 0.0 | 1.0 | 0.00 | 0.00 | 0.00 | 42 | 1010.3 |
| 20260509181225 | 70 | 285 | 1.0 | 4.0 | 0.00 | 0.00 | 0.00 | 42 | 1010.7 |
| 20260509180722 | 70 | 25 | 0.0 | 1.0 | 0.00 | 0.00 | 0.00 | 42 | 1010.9 |
| 20260509180219 | 70 | 237 | 4.0 | 4.0 | 0.00 | 0.00 | 0.00 | 43 | 1011.0 |
| 20260509175715 | 70 | 83 | 1.0 | 3.0 | 0.00 | 0.00 | 0.00 | 45 | 1011.1 |
| 20260509175212 | 70 | 322 | 2.0 | 3.0 | 0.00 | 0.00 | 0.00 | 42 | 1011.1 |
| 20260509174707 | 69 | 227 | 2.0 | 7.0 | 0.00 | 0.00 | 0.00 | 45 | 1011.1 |
| 20260509174202 | 69 | 232 | 0.0 | 2.0 | 0.00 | 0.00 | 0.00 | 46 | 1011.3 |
| 20260509173659 | 68 | 219 | 2.0 | 3.0 | 0.00 | 0.00 | 0.00 | 46 | 1011.3 |
| 20260509173155 | 67 | 263 | 1.0 | 4.0 | 0.00 | 0.00 | 0.00 | 50 | 1011.7 |
| 20260509172651 | 67 | 216 | 1.0 | 3.0 | 0.00 | 0.00 | 0.00 | 49 | 1011.4 |
| 20260509172148 | 66 | 226 | 2.0 | 2.0 | 0.00 | 0.00 | 0.00 | 47 | 1011.7 |
| 20260509171643 | 65 | 176 | 1.0 | 2.0 | 0.00 | 0.00 | 0.00 | 50 | 1011.8 |
| 20260509171140 | 65 | 113 | 0.0 | 3.0 | 0.00 | 0.00 | 0.00 | 50 | 1012.0 |
| 20260509170637 | 65 | 234 | 4.0 | 4.0 | 0.00 | 0.00 | 0.00 | 55 | 1012.0 |
| 20260509170132 | 64 | 284 | 1.0 | 3.0 | 0.00 | 0.00 | 0.00 | 52 | 1012.0 |
| 20260509165631 | 63 | 181 | 1.0 | 2.0 | 0.00 | 0.00 | 0.00 | 55 | 1012.2 |
| 20260509165127 | 63 | 146 | 2.0 | 4.0 | 0.00 | 0.00 | 0.00 | 54 | 1012.2 |
| 20260509164623 | 62 | 135 | 2.0 | 6.0 | 0.00 | 0.00 | 0.00 | 55 | 1012.1 |
| 20260509164119 | 62 | 153 | 0.0 | 6.0 | 0.00 | 0.00 | 0.00 | 55 | 1012.2 |
| 20260509163617 | 63 | 166 | 4.0 | 6.0 | 0.00 | 0.00 | 0.00 | 57 | 1012.1 |
| 20260509163112 | 62 | 308 | 1.0 | 4.0 | 0.00 | 0.00 | 0.00 | 58 | 1012.2 |
| 20260509162605 | 61 | 333 | 1.0 | 3.0 | 0.00 | 0.00 | 0.00 | 58 | 1012.3 |
| 20260509162100 | 61 | 318 | 3.0 | 4.0 | 0.00 | 0.00 | 0.00 | 57 | 1012.5 |
| 20260509161556 | 62 | 10 | 2.0 | 4.0 | 0.00 | 0.00 | 0.00 | 56 | 1012.6 |
| 20260509161050 | 62 | 331 | 3.0 | 4.0 | 0.00 | 0.00 | 0.00 | 57 | 1012.5 |
| 20260509160547 | 62 | 11 | 1.0 | 3.0 | 0.00 | 0.00 | 0.00 | 54 | 1012.5 |
| 20260509160042 | 62 | 29 | 1.0 | 4.0 | 0.00 | 0.00 | 0.00 | 55 | 1012.4 |
| 20260509155539 | 62 | 332 | 4.0 | 6.0 | 0.00 | 0.00 | 0.00 | 56 | 1012.5 |
| 20260509155035 | 62 | 27 | 3.0 | 6.0 | 0.00 | 0.00 | 0.00 | 54 | 1012.4 |
| 20260509154531 | 63 | 6 | 5.0 | 9.0 | 0.00 | 0.00 | 0.00 | 54 | 1012.4 |
| 20260509154029 | 63 | 321 | 2.0 | 6.0 | 0.00 | 0.00 | 0.00 | 57 | 1012.3 |
| 20260509153526 | 63 | 313 | 5.0 | 6.0 | 0.00 | 0.00 | 0.00 | 55 | 1012.2 |
| 20260509153022 | 63 | 329 | 4.0 | 6.0 | 0.00 | 0.00 | 0.00 | 55 | 1012.2 |
| 20260509152518 | 63 | 324 | 3.0 | 4.0 | 0.00 | 0.00 | 0.00 | 56 | 1012.2 |
| 20260509152015 | 63 | 19 | 3.0 | 4.0 | 0.00 | 0.00 | 0.00 | 53 | 1012.1 |
| 20260509151512 | 64 | 310 | 3.0 | 6.0 | 0.00 | 0.00 | 0.00 | 54 | 1012.2 |
| 20260509151010 | 64 | 329 | 2.0 | 3.0 | 0.00 | 0.00 | 0.00 | 56 | 1012.2 |
| 20260509150507 | 63 | 354 | 0.0 | 4.0 | 0.00 | 0.00 | 0.00 | 54 | 1012.2 |
| 20260509150005 | 63 | 9 | 2.0 | 3.0 | 0.00 | 0.00 | 0.00 | 55 | 1012.2 |
| 20260509145500 | 63 | 10 | 4.0 | 6.0 | 0.00 | 0.00 | 0.00 | 54 | 1012.3 |
| 20260509144955 | 64 | 355 | 4.0 | 4.0 | 0.00 | 0.00 | 0.00 | 55 | 1012.3 |
| 20260509144453 | 64 | 20 | 2.0 | 3.0 | 0.00 | 0.00 | 0.00 | 52 | 1012.2 |
| 20260509143950 | 64 | 302 | 2.0 | 3.0 | 0.00 | 0.00 | 0.00 | 52 | 1012.2 |
| 20260509143447 | 63 | 21 | 3.0 | 3.0 | 0.00 | 0.00 | 0.00 | 54 | 1012.3 |
| 20260509142943 | 63 | 317 | 4.0 | 6.0 | 0.00 | 0.00 | 0.00 | 54 | 1012.1 |
| 20260509142440 | 63 | 19 | 2.0 | 3.0 | 0.00 | 0.00 | 0.00 | 52 | 1012.2 |
| 20260509141935 | 64 | 274 | 2.0 | 3.0 | 0.00 | 0.00 | 0.00 | 50 | 1012.1 |
| 20260509141432 | 64 | 264 | 1.0 | 3.0 | 0.00 | 0.00 | 0.00 | 53 | 1012.3 |
| 20260509140929 | 63 | 330 | 2.0 | 4.0 | 0.00 | 0.00 | 0.00 | 55 | 1012.3 |
| 20260509140425 | 64 | 351 | 1.0 | 3.0 | 0.00 | 0.00 | 0.00 | 53 | 1012.3 |
| 20260509135924 | 64 | 30 | 3.0 | 3.0 | 0.00 | 0.00 | 0.00 | 50 | 1012.4 |
| 20260509135421 | 63 | 330 | 0.0 | 0.0 | 0.00 | 0.00 | 0.00 | 51 | 1012.7 |
| 20260509134918 | 62 | 7 | 0.0 | 0.0 | 0.00 | 0.00 | 0.00 | 53 | 1012.6 |
| 20260509134415 | 62 | 329 | 1.0 | 2.0 | 0.00 | 0.00 | 0.00 | 55 | 1012.7 |
| 20260509133913 | 62 | 17 | 0.0 | 0.0 | 0.00 | 0.00 | 0.00 | 55 | 1012.6 |
| 20260509133409 | 61 | 11 | 0.0 | 0.0 | 0.00 | 0.00 | 0.00 | 56 | 1012.7 |
| 20260509132908 | 60 | 13 | 0.0 | 0.0 | 0.00 | 0.00 | 0.00 | 60 | 1012.9 |
| 20260509132405 | 59 | 6 | 0.0 | 0.0 | 0.00 | 0.00 | 0.00 | 61 | 1012.9 |
| 20260509131902 | 58 | 6 | 0.0 | 0.0 | 0.00 | 0.00 | 0.00 | 63 | 1012.9 |
| 20260509131359 | 57 | 6 | 0.0 | 0.0 | 0.00 | 0.00 | 0.00 | 64 | 1012.7 |
| 20260509130856 | 56 | 352 | 0.0 | 0.0 | 0.00 | 0.00 | 0.00 | 67 | 1012.9 |
| 20260509130351 | 56 | 352 | 0.0 | 0.0 | 0.00 | 0.00 | 0.00 | 66 | 1012.7 |
| 20260509125848 | 56 | 309 | 0.0 | 0.0 | 0.00 | 0.00 | 0.00 | 69 | 1012.7 |
| 20260509125344 | 56 | 223 | 0.0 | 0.0 | 0.00 | 0.00 | 0.00 | 69 | 1012.7 |
| 20260509124841 | 56 | 221 | 0.0 | 0.0 | 0.00 | 0.00 | 0.00 | 68 | 1012.6 |
| 20260509124338 | 56 | 220 | 0.0 | 0.0 | 0.00 | 0.00 | 0.00 | 69 | 1012.5 |
| 20260509123836 | 55 | 220 | 0.0 | 0.0 | 0.00 | 0.00 | 0.00 | 69 | 1012.5 |
| 20260509123333 | 55 | 221 | 0.0 | 0.0 | 0.00 | 0.00 | 0.00 | 72 | 1012.5 |
| 20260509122829 | 55 | 221 | 0.0 | 0.0 | 0.00 | 0.00 | 0.00 | 73 | 1012.6 |
| 20260509122326 | 54 | 221 | 0.0 | 0.0 | 0.00 | 0.00 | 0.00 | 74 | 1012.6 |
| 20260509121823 | 54 | 221 | 0.0 | 0.0 | 0.00 | 0.00 | 0.00 | 72 | 1012.8 |
| 20260509121320 | 54 | 221 | 0.0 | 0.0 | 0.00 | 0.00 | 0.00 | 75 | 1012.7 |
| 20260509120818 | 53 | 221 | 1.0 | 1.0 | 0.00 | 0.00 | 0.00 | 76 | 1012.9 |
| 20260509120315 | 53 | 219 | 1.0 | 1.0 | 0.00 | 0.00 | 0.00 | 78 | 1012.8 |
| 20260509115814 | 53 | 216 | 2.0 | 3.0 | 0.00 | 0.00 | 0.00 | 80 | 1012.8 |
| 20260509115310 | 53 | 236 | 0.0 | 0.0 | 0.00 | 0.00 | 0.00 | 78 | 1012.7 |
| 20260509114808 | 53 | 241 | 0.0 | 0.0 | 0.00 | 0.00 | 0.00 | 77 | 1012.9 |
| 20260509114306 | 53 | 260 | 0.0 | 0.0 | 0.00 | 0.00 | 0.00 | 76 | 1012.8 |
| 20260509113805 | 53 | 334 | 0.0 | 0.0 | 0.00 | 0.00 | 0.00 | 75 | 1012.6 |
| 20260509113301 | 53 | 338 | 0.0 | 0.0 | 0.00 | 0.00 | 0.00 | 76 | 1012.8 |
| 20260509112758 | 53 | 339 | 0.0 | 0.0 | 0.00 | 0.00 | 0.00 | 76 | 1012.7 |
| 20260509112256 | 52 | 339 | 0.0 | 0.0 | 0.00 | 0.00 | 0.00 | 76 | 1012.7 |
| 20260509111753 | 52 | 339 | 0.0 | 0.0 | 0.00 | 0.00 | 0.00 | 76 | 1012.7 |
| 20260509111249 | 52 | 339 | 0.0 | 0.0 | 0.00 | 0.00 | 0.00 | 76 | 1012.6 |
| 20260509110747 | 52 | 339 | 0.0 | 0.0 | 0.00 | 0.00 | 0.00 | 76 | 1012.4 |
| 20260509110243 | 52 | 339 | 0.0 | 0.0 | 0.00 | 0.00 | 0.00 | 76 | 1012.5 |
| 20260509105742 | 51 | 339 | 0.0 | 0.0 | 0.00 | 0.00 | 0.00 | 76 | 1012.2 |
| 20260509105239 | 51 | 339 | 0.0 | 0.0 | 0.00 | 0.00 | 0.00 | 77 | 1012.4 |
| 20260509104736 | 51 | 339 | 0.0 | 0.0 | 0.00 | 0.00 | 0.00 | 75 | 1012.2 |
| 20260509104233 | 51 | 0 | 1.0 | 2.0 | 0.00 | 0.00 | 0.00 | 73 | 1012.2 |
| 20260509103731 | 52 | 258 | 1.0 | 2.0 | 0.00 | 0.00 | 0.00 | 74 | 1012.3 |
| 20260509103228 | 51 | 212 | 1.0 | 1.0 | 0.00 | 0.00 | 0.00 | 73 | 1012.2 |
| 20260509102726 | 52 | 206 | 0.0 | 1.0 | 0.00 | 0.00 | 0.00 | 74 | 1012.4 |
| 20260509102222 | 52 | 217 | 2.0 | 2.0 | 0.00 | 0.00 | 0.00 | 73 | 1012.2 |
| 20260509101719 | 51 | 189 | 2.0 | 3.0 | 0.00 | 0.00 | 0.00 | 72 | 1012.2 |
| 20260509101215 | 51 | 212 | 2.0 | 3.0 | 0.00 | 0.00 | 0.00 | 73 | 1012.3 |
| 20260509100713 | 51 | 175 | 2.0 | 3.0 | 0.00 | 0.00 | 0.00 | 74 | 1012.2 |
| 20260509100209 | 51 | 206 | 2.0 | 2.0 | 0.00 | 0.00 | 0.00 | 76 | 1012.1 |
| 20260509095706 | 51 | 214 | 2.0 | 2.0 | 0.00 | 0.00 | 0.00 | 75 | 1012.3 |
| 20260509095204 | 51 | 225 | 1.0 | 2.0 | 0.00 | 0.00 | 0.00 | 75 | 1012.1 |
| 20260509094700 | 52 | 222 | 0.0 | 1.0 | 0.00 | 0.00 | 0.00 | 75 | 1012.1 |
| 20260509094157 | 52 | 222 | 0.0 | 0.0 | 0.00 | 0.00 | 0.00 | 73 | 1012.3 |
| 20260509093656 | 52 | 223 | 0.0 | 0.0 | 0.00 | 0.00 | 0.00 | 72 | 1012.3 |
| 20260509093152 | 53 | 223 | 1.0 | 1.0 | 0.00 | 0.00 | 0.00 | 70 | 1012.4 |
| 20260509092650 | 53 | 223 | 0.0 | 0.0 | 0.00 | 0.00 | 0.00 | 70 | 1012.5 |
| 20260509092144 | 53 | 223 | 0.0 | 1.0 | 0.00 | 0.00 | 0.00 | 69 | 1012.4 |
| 20260509091641 | 53 | 212 | 1.0 | 2.0 | 0.00 | 0.00 | 0.00 | 69 | 1012.4 |
| 20260509091137 | 53 | 200 | 0.0 | 0.0 | 0.00 | 0.00 | 0.00 | 69 | 1012.6 |
| 20260509090635 | 53 | 223 | 0.0 | 1.0 | 0.00 | 0.00 | 0.00 | 71 | 1012.3 |
| 20260509090132 | 53 | 225 | 0.0 | 1.0 | 0.00 | 0.00 | 0.00 | 73 | 1012.3 |
| 20260509085629 | 53 | 225 | 0.0 | 0.0 | 0.00 | 0.00 | 0.00 | 70 | 1012.5 |
| 20260509085125 | 53 | 225 | 2.0 | 2.0 | 0.00 | 0.00 | 0.00 | 68 | 1012.4 |
| 20260509084623 | 53 | 214 | 1.0 | 2.0 | 0.00 | 0.00 | 0.00 | 68 | 1012.5 |
| 20260509084120 | 53 | 186 | 2.0 | 2.0 | 0.00 | 0.00 | 0.00 | 66 | 1012.4 |
| 20260509083617 | 53 | 201 | 0.0 | 0.0 | 0.00 | 0.00 | 0.00 | 67 | 1012.7 |
| 20260509083113 | 53 | 217 | 0.0 | 2.0 | 0.00 | 0.00 | 0.00 | 67 | 1012.6 |
| 20260509082611 | 53 | 207 | 0.0 | 0.0 | 0.00 | 0.00 | 0.00 | 68 | 1012.6 |
| 20260509082107 | 53 | 215 | 1.0 | 3.0 | 0.00 | 0.00 | 0.00 | 68 | 1012.6 |
| 20260509081605 | 53 | 217 | 1.0 | 3.0 | 0.00 | 0.00 | 0.00 | 69 | 1012.7 |
| 20260509081101 | 53 | 246 | 3.0 | 3.0 | 0.00 | 0.00 | 0.00 | 68 | 1012.5 |
| 20260509080600 | 54 | 221 | 2.0 | 2.0 | 0.00 | 0.00 | 0.00 | 67 | 1012.6 |
| 20260509080057 | 54 | 197 | 4.0 | 6.0 | 0.00 | 0.00 | 0.00 | 64 | 1012.5 |
| 20260509075555 | 54 | 224 | 4.0 | 6.0 | 0.00 | 0.00 | 0.00 | 66 | 1012.7 |
| 20260509075053 | 54 | 222 | 5.0 | 6.0 | 0.00 | 0.00 | 0.00 | 65 | 1012.6 |
| 20260509074549 | 54 | 202 | 3.0 | 4.0 | 0.00 | 0.00 | 0.00 | 65 | 1012.6 |
| 20260509074046 | 54 | 204 | 4.0 | 4.0 | 0.00 | 0.00 | 0.00 | 65 | 1012.7 |
| 20260509073543 | 54 | 210 | 4.0 | 4.0 | 0.00 | 0.00 | 0.00 | 67 | 1012.6 |
| 20260509073039 | 54 | 222 | 3.0 | 6.0 | 0.00 | 0.00 | 0.00 | 65 | 1012.8 |
| 20260509072535 | 54 | 216 | 4.0 | 6.0 | 0.00 | 0.00 | 0.00 | 65 | 1012.8 |
| 20260509072032 | 53 | 214 | 3.0 | 4.0 | 0.00 | 0.00 | 0.00 | 66 | 1012.8 |
| 20260509071529 | 53 | 223 | 3.0 | 3.0 | 0.00 | 0.00 | 0.00 | 67 | 1012.9 |
| 20260509071027 | 54 | 221 | 3.0 | 4.0 | 0.00 | 0.00 | 0.00 | 66 | 1012.9 |
| 20260509070524 | 53 | 209 | 3.0 | 4.0 | 0.00 | 0.00 | 0.00 | 66 | 1012.5 |
| 20260509070020 | 53 | 213 | 4.0 | 4.0 | 0.00 | 0.00 | 0.00 | 68 | 1012.7 |
| 20260509065515 | 53 | 210 | 3.0 | 4.0 | 0.00 | 0.00 | 0.00 | 69 | 1012.8 |
| 20260509065012 | 52 | 198 | 4.0 | 4.0 | 0.00 | 0.00 | 0.00 | 70 | 1012.6 |
| 20260509064510 | 51 | 216 | 3.0 | 4.0 | 0.00 | 0.00 | 0.00 | 71 | 1012.7 |
| 20260509064008 | 51 | 205 | 2.0 | 3.0 | 0.00 | 0.00 | 0.00 | 72 | 1012.8 |
| 20260509063502 | 51 | 214 | 2.0 | 4.0 | 0.00 | 0.00 | 0.00 | 73 | 1012.8 |
| 20260509063000 | 50 | 229 | 0.0 | 1.0 | 0.00 | 0.00 | 0.00 | 76 | 1012.9 |
| 20260509062457 | 50 | 230 | 0.0 | 0.0 | 0.00 | 0.00 | 0.00 | 74 | 1013.0 |
| 20260509061955 | 49 | 228 | 1.0 | 1.0 | 0.00 | 0.00 | 0.00 | 76 | 1013.1 |
| 20260509061452 | 49 | 225 | 0.0 | 0.0 | 0.00 | 0.00 | 0.00 | 76 | 1013.0 |
| 20260509060949 | 49 | 225 | 0.0 | 0.0 | 0.00 | 0.00 | 0.00 | 76 | 1013.0 |
| 20260509060446 | 49 | 225 | 0.0 | 0.0 | 0.00 | 0.00 | 0.00 | 76 | 1013.1 |
| 20260509055942 | 48 | 232 | 0.0 | 0.0 | 0.00 | 0.00 | 0.00 | 77 | 1013.4 |
| 20260509055437 | 49 | 219 | 0.0 | 1.0 | 0.00 | 0.00 | 0.00 | 77 | 1013.1 |
| 20260509054934 | 49 | 227 | 0.0 | 1.0 | 0.00 | 0.00 | 0.00 | 77 | 1013.1 |
| 20260509054431 | 49 | 229 | 1.0 | 2.0 | 0.00 | 0.00 | 0.00 | 77 | 1013.2 |
| 20260509053929 | 49 | 229 | 2.0 | 2.0 | 0.00 | 0.00 | 0.00 | 76 | 1013.2 |
| 20260509053426 | 49 | 213 | 1.0 | 2.0 | 0.00 | 0.00 | 0.00 | 78 | 1013.2 |
| 20260509052924 | 48 | 216 | 3.0 | 3.0 | 0.00 | 0.00 | 0.00 | 76 | 1013.3 |
| 20260509052421 | 49 | 220 | 3.0 | 3.0 | 0.00 | 0.00 | 0.00 | 77 | 1013.2 |
| 20260509051919 | 49 | 192 | 3.0 | 3.0 | 0.00 | 0.00 | 0.00 | 75 | 1013.2 |
| 20260509051417 | 50 | 188 | 2.0 | 3.0 | 0.00 | 0.00 | 0.00 | 74 | 1013.3 |
| 20260509050913 | 50 | 193 | 2.0 | 3.0 | 0.00 | 0.00 | 0.00 | 74 | 1013.4 |
| 20260509050410 | 50 | 211 | 2.0 | 2.0 | 0.00 | 0.00 | 0.00 | 74 | 1013.4 |
| 20260509045907 | 50 | 219 | 1.0 | 2.0 | 0.00 | 0.00 | 0.00 | 76 | 1013.5 |
| 20260509045404 | 50 | 223 | 2.0 | 2.0 | 0.00 | 0.00 | 0.00 | 75 | 1013.5 |
| 20260509044901 | 51 | 216 | 0.0 | 0.0 | 0.00 | 0.00 | 0.00 | 75 | 1013.3 |
| 20260509044358 | 51 | 216 | 0.0 | 0.0 | 0.00 | 0.00 | 0.00 | 74 | 1013.4 |
| 20260509043855 | 51 | 216 | 0.0 | 0.0 | 0.00 | 0.00 | 0.00 | 73 | 1013.3 |
| 20260509043350 | 52 | 216 | 0.0 | 0.0 | 0.00 | 0.00 | 0.00 | 71 | 1013.4 |
| 20260509042846 | 53 | 216 | 0.0 | 0.0 | 0.00 | 0.00 | 0.00 | 71 | 1013.2 |
| 20260509042343 | 53 | 207 | 1.0 | 2.0 | 0.00 | 0.00 | 0.00 | 68 | 1013.3 |
| 20260509041840 | 54 | 205 | 0.0 | 0.0 | 0.00 | 0.00 | 0.00 | 68 | 1013.3 |
| 20260509041336 | 54 | 206 | 0.0 | 0.0 | 0.00 | 0.00 | 0.00 | 66 | 1013.5 |
| 20260509040835 | 54 | 205 | 0.0 | 0.0 | 0.00 | 0.00 | 0.00 | 66 | 1013.5 |
| 20260509040332 | 54 | 205 | 1.0 | 2.0 | 0.00 | 0.00 | 0.00 | 65 | 1013.2 |
| 20260509035829 | 54 | 196 | 0.0 | 0.0 | 0.00 | 0.00 | 0.00 | 65 | 1013.2 |
| 20260509035326 | 54 | 212 | 0.0 | 2.0 | 0.00 | 0.00 | 0.00 | 66 | 1013.4 |
| 20260509034822 | 54 | 217 | 0.0 | 1.0 | 0.00 | 0.00 | 0.00 | 67 | 1013.3 |
| 20260509034320 | 53 | 216 | 0.0 | 2.0 | 0.00 | 0.00 | 0.00 | 68 | 1013.4 |
| 20260509033817 | 53 | 216 | 2.0 | 2.0 | 0.00 | 0.00 | 0.00 | 69 | 1013.2 |